Terminal Aerodrome Forecast
Issued by NWS Atlanta, GA

Home | Current Version | Previous Version | Text Only | Print | Product List | Glossary On
Versions: 1 2 3 4 5 6 7 8 9 10 11 12 13 14 15 16 17
285
FTUS42 KFFC 212332
TAFCSG
TAF
KCSG 212332Z 2200/2224 18008KT P6SM SCT080
     FM220800 15004KT 5SM BR BKN015
     FM221100 15003KT 4SM BR OVC008
     FM221700 17007KT P6SM BKN025 BKN050
     FM222000 19007KT P6SM SCT035 BKN080=

USA.gov is the U.S. government's official web portal to all federal, state and local government web resources and services.